sensor_id;sensor_type;location;lat;lon;timestamp;noise_LAeq;noise_LA_min;noise_LA_max;noise_LA01;noise_LA95
70245;Laerm;57637;49.272;8.590;2023-07-20T00:02:13;35.80;31.83;53.04;;
70245;Laerm;57637;49.272;8.590;2023-07-20T00:04:39;36.49;32.69;46.04;;
70245;Laerm;57637;49.272;8.590;2023-07-20T00:07:04;37.01;32.56;47.39;;
70245;Laerm;57637;49.272;8.590;2023-07-20T00:09:30;34.18;31.28;46.94;;
70245;Laerm;57637;49.272;8.590;2023-07-20T00:11:55;35.07;31.72;42.35;;
70245;Laerm;57637;49.272;8.590;2023-07-20T00:14:21;36.23;32.39;46.54;;
70245;Laerm;57637;49.272;8.590;2023-07-20T00:16:49;35.93;33.21;40.51;;
70245;Laerm;57637;49.272;8.590;2023-07-20T00:19:27;36.37;32.99;46.51;;
70245;Laerm;57637;49.272;8.590;2023-07-20T00:21:53;36.75;32.46;51.27;;
70245;Laerm;57637;49.272;8.590;2023-07-20T00:24:19;36.38;32.02;46.67;;
70245;Laerm;57637;49.272;8.590;2023-07-20T00:26:45;36.42;32.78;40.16;;
70245;Laerm;57637;49.272;8.590;2023-07-20T00:29:10;36.50;32.46;46.17;;
70245;Laerm;57637;49.272;8.590;2023-07-20T00:31:36;36.35;32.75;44.07;;
70245;Laerm;57637;49.272;8.590;2023-07-20T00:34:03;36.27;32.79;41.79;;
70245;Laerm;57637;49.272;8.590;2023-07-20T00:36:28;35.44;31.62;42.47;;
70245;Laerm;57637;49.272;8.590;2023-07-20T00:38:53;35.57;32.44;48.53;;
70245;Laerm;57637;49.272;8.590;2023-07-20T00:41:19;35.76;32.10;40.58;;
70245;Laerm;57637;49.272;8.590;2023-07-20T00:43:44;37.88;32.25;48.45;;
70245;Laerm;57637;49.272;8.590;2023-07-20T00:46:10;34.94;31.98;43.12;;
70245;Laerm;57637;49.272;8.590;2023-07-20T00:48:36;35.36;32.42;42.07;;
70245;Laerm;57637;49.272;8.590;2023-07-20T00:51:01;35.78;31.69;48.57;;
70245;Laerm;57637;49.272;8.590;2023-07-20T00:53:27;36.01;31.60;45.32;;
70245;Laerm;57637;49.272;8.590;2023-07-20T00:55:53;34.71;31.78;46.06;;
70245;Laerm;57637;49.272;8.590;2023-07-20T00:58:19;35.36;31.81;43.86;;
70245;Laerm;57637;49.272;8.590;2023-07-20T01:00:45;35.47;31.74;48.92;;
70245;Laerm;57637;49.272;8.590;2023-07-20T01:03:10;35.35;31.75;45.31;;
70245;Laerm;57637;49.272;8.590;2023-07-20T01:05:42;35.00;31.60;49.27;;
70245;Laerm;57637;49.272;8.590;2023-07-20T01:08:18;34.80;30.89;43.84;;
70245;Laerm;57637;49.272;8.590;2023-07-20T01:10:54;35.04;31.94;43.38;;
70245;Laerm;57637;49.272;8.590;2023-07-20T01:13:22;35.41;31.78;43.20;;
70245;Laerm;57637;49.272;8.590;2023-07-20T01:15:56;35.86;32.11;41.01;;
70245;Laerm;57637;49.272;8.590;2023-07-20T01:18:23;35.68;31.79;50.51;;
70245;Laerm;57637;49.272;8.590;2023-07-20T01:20:49;35.35;31.98;39.28;;
70245;Laerm;57637;49.272;8.590;2023-07-20T01:28:37;36.90;32.32;41.53;;
70245;Laerm;57637;49.272;8.590;2023-07-20T01:31:26;38.05;34.87;43.40;;
70245;Laerm;57637;49.272;8.590;2023-07-20T01:33:55;39.22;36.01;42.72;;
70245;Laerm;57637;49.272;8.590;2023-07-20T01:36:23;40.45;36.69;49.71;;
70245;Laerm;57637;49.272;8.590;2023-07-20T01:38:50;39.41;35.98;45.70;;
70245;Laerm;57637;49.272;8.590;2023-07-20T01:41:16;40.41;36.04;45.82;;
70245;Laerm;57637;49.272;8.590;2023-07-20T01:43:42;40.52;37.18;44.86;;
70245;Laerm;57637;49.272;8.590;2023-07-20T01:46:07;40.68;36.77;47.28;;
70245;Laerm;57637;49.272;8.590;2023-07-20T01:48:32;39.25;36.06;45.15;;
70245;Laerm;57637;49.272;8.590;2023-07-20T01:50:58;39.25;35.06;49.98;;
70245;Laerm;57637;49.272;8.590;2023-07-20T01:53:24;39.27;35.43;45.06;;
70245;Laerm;57637;49.272;8.590;2023-07-20T01:55:49;38.83;35.89;42.00;;
70245;Laerm;57637;49.272;8.590;2023-07-20T01:58:17;37.54;33.89;41.37;;
70245;Laerm;57637;49.272;8.590;2023-07-20T02:00:42;37.75;34.51;42.71;;
70245;Laerm;57637;49.272;8.590;2023-07-20T02:03:08;38.07;34.04;43.93;;
70245;Laerm;57637;49.272;8.590;2023-07-20T02:05:33;38.09;34.85;41.91;;
70245;Laerm;57637;49.272;8.590;2023-07-20T02:07:58;39.41;34.57;51.62;;
70245;Laerm;57637;49.272;8.590;2023-07-20T02:10:24;38.13;34.36;47.75;;
70245;Laerm;57637;49.272;8.590;2023-07-20T02:12:49;38.26;34.10;42.03;;
70245;Laerm;57637;49.272;8.590;2023-07-20T02:15:14;37.36;34.08;40.97;;
70245;Laerm;57637;49.272;8.590;2023-07-20T02:17:42;38.29;34.59;44.64;;
70245;Laerm;57637;49.272;8.590;2023-07-20T02:20:08;38.66;34.57;50.62;;
70245;Laerm;57637;49.272;8.590;2023-07-20T02:22:37;42.66;35.50;55.49;;
70245;Laerm;57637;49.272;8.590;2023-07-20T02:25:06;39.10;35.25;46.30;;
70245;Laerm;57637;49.272;8.590;2023-07-20T02:27:36;39.67;36.12;47.70;;
70245;Laerm;57637;49.272;8.590;2023-07-20T02:30:02;37.86;34.46;43.80;;
70245;Laerm;57637;49.272;8.590;2023-07-20T02:32:28;39.84;35.02;50.06;;
70245;Laerm;57637;49.272;8.590;2023-07-20T02:34:54;38.86;35.22;46.42;;
70245;Laerm;57637;49.272;8.590;2023-07-20T02:37:19;38.47;35.24;42.79;;
70245;Laerm;57637;49.272;8.590;2023-07-20T02:39:44;39.55;35.24;47.87;;
70245;Laerm;57637;49.272;8.590;2023-07-20T02:42:10;39.09;35.98;52.20;;
70245;Laerm;57637;49.272;8.590;2023-07-20T02:44:35;38.44;34.31;51.52;;
70245;Laerm;57637;49.272;8.590;2023-07-20T02:47:00;37.64;33.97;42.05;;
70245;Laerm;57637;49.272;8.590;2023-07-20T02:49:26;37.16;34.09;50.21;;
70245;Laerm;57637;49.272;8.590;2023-07-20T02:51:51;39.21;34.30;54.97;;
70245;Laerm;57637;49.272;8.590;2023-07-20T02:54:17;39.57;34.72;49.72;;
70245;Laerm;57637;49.272;8.590;2023-07-20T02:56:42;39.29;35.10;50.22;;
70245;Laerm;57637;49.272;8.590;2023-07-20T02:59:08;38.30;35.01;41.93;;
70245;Laerm;57637;49.272;8.590;2023-07-20T03:01:34;38.50;34.99;42.20;;
70245;Laerm;57637;49.272;8.590;2023-07-20T03:03:59;38.83;35.48;42.11;;
70245;Laerm;57637;49.272;8.590;2023-07-20T03:06:24;39.84;35.61;48.70;;
70245;Laerm;57637;49.272;8.590;2023-07-20T03:08:50;39.46;35.78;52.36;;
70245;Laerm;57637;49.272;8.590;2023-07-20T03:11:17;39.76;36.72;46.90;;
70245;Laerm;57637;49.272;8.590;2023-07-20T03:13:43;40.25;36.97;45.06;;
70245;Laerm;57637;49.272;8.590;2023-07-20T03:16:10;41.09;37.81;51.74;;
70245;Laerm;57637;49.272;8.590;2023-07-20T03:18:37;40.62;37.65;47.03;;
70245;Laerm;57637;49.272;8.590;2023-07-20T03:21:04;40.13;37.85;45.17;;
70245;Laerm;57637;49.272;8.590;2023-07-20T03:23:29;40.07;37.94;42.98;;
70245;Laerm;57637;49.272;8.590;2023-07-20T03:25:55;40.15;37.88;42.78;;
70245;Laerm;57637;49.272;8.590;2023-07-20T03:28:20;39.90;37.76;50.85;;
70245;Laerm;57637;49.272;8.590;2023-07-20T03:30:45;43.95;35.60;60.06;;
70245;Laerm;57637;49.272;8.590;2023-07-20T03:33:11;41.52;34.95;59.42;;
70245;Laerm;57637;49.272;8.590;2023-07-20T03:35:37;41.30;36.68;49.75;;
70245;Laerm;57637;49.272;8.590;2023-07-20T03:38:02;45.03;37.00;62.08;;
70245;Laerm;57637;49.272;8.590;2023-07-20T03:40:28;48.86;36.75;61.99;;
70245;Laerm;57637;49.272;8.590;2023-07-20T03:42:53;49.53;36.01;63.54;;
70245;Laerm;57637;49.272;8.590;2023-07-20T03:45:18;51.56;37.22;64.97;;
70245;Laerm;57637;49.272;8.590;2023-07-20T03:47:44;47.09;38.42;60.40;;
70245;Laerm;57637;49.272;8.590;2023-07-20T03:50:10;46.86;36.83;58.32;;
70245;Laerm;57637;49.272;8.590;2023-07-20T03:52:35;46.01;37.41;61.95;;
70245;Laerm;57637;49.272;8.590;2023-07-20T03:55:01;46.53;36.87;61.07;;
70245;Laerm;57637;49.272;8.590;2023-07-20T03:57:26;46.90;37.00;60.51;;
70245;Laerm;57637;49.272;8.590;2023-07-20T03:59:52;46.55;37.75;60.27;;
70245;Laerm;57637;49.272;8.590;2023-07-20T04:02:17;48.12;36.07;62.06;;
70245;Laerm;57637;49.272;8.590;2023-07-20T04:04:42;45.51;35.49;64.76;;
70245;Laerm;57637;49.272;8.590;2023-07-20T04:07:08;43.32;34.69;60.81;;
70245;Laerm;57637;49.272;8.590;2023-07-20T04:09:34;45.66;35.37;62.00;;
70245;Laerm;57637;49.272;8.590;2023-07-20T04:11:59;46.52;36.34;63.68;;
70245;Laerm;57637;49.272;8.590;2023-07-20T04:14:25;43.58;36.16;58.24;;
70245;Laerm;57637;49.272;8.590;2023-07-20T04:16:50;43.42;36.11;60.37;;
70245;Laerm;57637;49.272;8.590;2023-07-20T04:19:17;46.39;36.72;65.56;;
70245;Laerm;57637;49.272;8.590;2023-07-20T04:21:43;47.91;36.69;62.76;;
70245;Laerm;57637;49.272;8.590;2023-07-20T04:24:08;44.94;35.39;62.30;;
70245;Laerm;57637;49.272;8.590;2023-07-20T04:26:34;44.51;35.35;59.05;;
70245;Laerm;57637;49.272;8.590;2023-07-20T04:28:59;44.02;35.57;62.24;;
70245;Laerm;57637;49.272;8.590;2023-07-20T04:31:25;47.09;35.76;62.38;;
70245;Laerm;57637;49.272;8.590;2023-07-20T04:33:50;46.55;36.86;59.52;;
70245;Laerm;57637;49.272;8.590;2023-07-20T04:36:16;46.86;36.49;63.21;;
70245;Laerm;57637;49.272;8.590;2023-07-20T04:38:45;43.36;35.87;57.82;;
70245;Laerm;57637;49.272;8.590;2023-07-20T04:41:10;45.57;35.84;60.77;;
70245;Laerm;57637;49.272;8.590;2023-07-20T04:43:41;47.25;36.22;75.27;;
70245;Laerm;57637;49.272;8.590;2023-07-20T04:46:06;42.87;36.13;67.94;;
70245;Laerm;57637;49.272;8.590;2023-07-20T04:48:31;40.15;35.15;55.31;;
70245;Laerm;57637;49.272;8.590;2023-07-20T04:50:57;42.28;35.53;59.20;;
70245;Laerm;57637;49.272;8.590;2023-07-20T04:53:22;45.40;36.12;59.97;;
70245;Laerm;57637;49.272;8.590;2023-07-20T04:55:49;45.60;35.91;58.86;;
70245;Laerm;57637;49.272;8.590;2023-07-20T04:58:20;46.14;35.95;61.00;;
70245;Laerm;57637;49.272;8.590;2023-07-20T05:00:46;46.31;36.00;59.39;;
70245;Laerm;57637;49.272;8.590;2023-07-20T05:03:11;48.52;36.21;66.36;;
70245;Laerm;57637;49.272;8.590;2023-07-20T05:05:37;44.40;34.43;63.02;;
70245;Laerm;57637;49.272;8.590;2023-07-20T05:08:04;42.58;34.95;61.27;;
70245;Laerm;57637;49.272;8.590;2023-07-20T05:10:29;42.05;34.18;58.89;;
70245;Laerm;57637;49.272;8.590;2023-07-20T05:12:54;46.19;34.33;63.86;;
70245;Laerm;57637;49.272;8.590;2023-07-20T05:15:20;45.76;34.65;70.42;;
70245;Laerm;57637;49.272;8.590;2023-07-20T05:17:45;46.41;35.98;58.81;;
70245;Laerm;57637;49.272;8.590;2023-07-20T05:20:12;43.14;34.88;58.26;;
70245;Laerm;57637;49.272;8.590;2023-07-20T05:22:38;43.24;35.30;56.64;;
70245;Laerm;57637;49.272;8.590;2023-07-20T05:25:08;45.19;35.35;61.25;;
70245;Laerm;57637;49.272;8.590;2023-07-20T05:27:36;45.25;34.58;69.25;;
70245;Laerm;57637;49.272;8.590;2023-07-20T05:30:01;47.97;35.37;65.17;;
70245;Laerm;57637;49.272;8.590;2023-07-20T05:32:27;50.35;39.95;69.71;;
70245;Laerm;57637;49.272;8.590;2023-07-20T05:34:53;52.20;48.35;62.52;;
70245;Laerm;57637;49.272;8.590;2023-07-20T05:37:19;53.55;48.99;68.40;;
70245;Laerm;57637;49.272;8.590;2023-07-20T05:39:45;53.67;48.37;66.86;;
70245;Laerm;57637;49.272;8.590;2023-07-20T05:42:10;51.51;46.25;63.28;;
70245;Laerm;57637;49.272;8.590;2023-07-20T05:44:35;57.41;45.82;72.96;;
70245;Laerm;57637;49.272;8.590;2023-07-20T05:47:01;50.81;35.61;68.10;;
70245;Laerm;57637;49.272;8.590;2023-07-20T05:49:27;50.98;37.34;66.26;;
70245;Laerm;57637;49.272;8.590;2023-07-20T05:51:54;52.45;46.86;70.10;;
70245;Laerm;57637;49.272;8.590;2023-07-20T05:54:21;51.39;47.61;62.02;;
70245;Laerm;57637;49.272;8.590;2023-07-20T05:56:46;52.47;48.22;67.69;;
70245;Laerm;57637;49.272;8.590;2023-07-20T05:59:12;52.11;48.28;69.70;;
70245;Laerm;57637;49.272;8.590;2023-07-20T06:01:37;50.49;35.12;67.66;;
70245;Laerm;57637;49.272;8.590;2023-07-20T06:04:03;41.39;34.83;56.21;;
70245;Laerm;57637;49.272;8.590;2023-07-20T06:06:28;42.56;33.25;62.21;;
70245;Laerm;57637;49.272;8.590;2023-07-20T06:08:54;49.23;32.69;66.06;;
70245;Laerm;57637;49.272;8.590;2023-07-20T06:11:20;53.55;48.46;67.50;;
70245;Laerm;57637;49.272;8.590;2023-07-20T06:13:45;53.41;48.29;59.83;;
70245;Laerm;57637;49.272;8.590;2023-07-20T06:16:11;52.08;37.73;63.82;;
70245;Laerm;57637;49.272;8.590;2023-07-20T06:18:36;57.88;34.51;67.81;;
70245;Laerm;57637;49.272;8.590;2023-07-20T06:21:01;58.05;50.24;69.57;;
70245;Laerm;57637;49.272;8.590;2023-07-20T06:23:27;57.09;43.18;67.72;;
70245;Laerm;57637;49.272;8.590;2023-07-20T06:25:52;55.64;50.10;70.67;;
70245;Laerm;57637;49.272;8.590;2023-07-20T06:28:18;56.44;51.09;69.99;;
70245;Laerm;57637;49.272;8.590;2023-07-20T06:30:43;55.19;50.19;61.41;;
70245;Laerm;57637;49.272;8.590;2023-07-20T06:33:09;54.96;42.11;70.31;;
70245;Laerm;57637;49.272;8.590;2023-07-20T06:35:34;47.09;31.66;59.61;;
70245;Laerm;57637;49.272;8.590;2023-07-20T06:38:01;47.62;31.91;64.04;;
70245;Laerm;57637;49.272;8.590;2023-07-20T06:40:28;44.00;32.36;57.46;;
70245;Laerm;57637;49.272;8.590;2023-07-20T06:42:53;44.27;32.18;59.65;;
70245;Laerm;57637;49.272;8.590;2023-07-20T06:45:19;40.85;32.46;58.66;;
70245;Laerm;57637;49.272;8.590;2023-07-20T06:47:44;43.12;30.21;61.12;;
70245;Laerm;57637;49.272;8.590;2023-07-20T06:50:10;44.28;31.87;56.46;;
70245;Laerm;57637;49.272;8.590;2023-07-20T06:52:36;44.33;32.48;55.49;;
70245;Laerm;57637;49.272;8.590;2023-07-20T06:55:02;48.30;32.35;64.91;;
70245;Laerm;57637;49.272;8.590;2023-07-20T06:57:27;53.83;41.14;71.36;;
70245;Laerm;57637;49.272;8.590;2023-07-20T06:59:53;53.81;33.39;69.83;;
70245;Laerm;57637;49.272;8.590;2023-07-20T07:02:18;52.13;34.82;67.54;;
70245;Laerm;57637;49.272;8.590;2023-07-20T07:04:44;52.75;44.19;72.27;;
70245;Laerm;57637;49.272;8.590;2023-07-20T07:07:10;53.55;34.95;74.31;;
70245;Laerm;57637;49.272;8.590;2023-07-20T07:09:36;47.67;33.08;67.80;;
70245;Laerm;57637;49.272;8.590;2023-07-20T07:12:01;46.50;32.65;74.08;;
70245;Laerm;57637;49.272;8.590;2023-07-20T07:14:26;49.06;35.75;65.91;;
70245;Laerm;57637;49.272;8.590;2023-07-20T07:16:52;51.18;47.66;65.10;;
70245;Laerm;57637;49.272;8.590;2023-07-20T07:19:17;52.01;44.69;70.02;;
70245;Laerm;57637;49.272;8.590;2023-07-20T07:21:43;48.90;35.20;67.14;;
70245;Laerm;57637;49.272;8.590;2023-07-20T07:24:08;47.06;33.59;65.11;;
70245;Laerm;57637;49.272;8.590;2023-07-20T07:26:36;46.58;32.50;67.90;;
70245;Laerm;57637;49.272;8.590;2023-07-20T07:29:01;41.59;31.78;56.78;;
70245;Laerm;57637;49.272;8.590;2023-07-20T07:31:28;47.27;35.60;65.38;;
70245;Laerm;57637;49.272;8.590;2023-07-20T07:33:54;51.71;36.74;69.64;;
70245;Laerm;57637;49.272;8.590;2023-07-20T07:36:20;44.39;34.88;57.53;;
70245;Laerm;57637;49.272;8.590;2023-07-20T07:38:45;40.04;31.93;54.61;;
70245;Laerm;57637;49.272;8.590;2023-07-20T07:41:10;45.20;31.88;66.49;;
70245;Laerm;57637;49.272;8.590;2023-07-20T07:43:36;49.68;32.75;69.62;;
70245;Laerm;57637;49.272;8.590;2023-07-20T07:46:01;48.45;32.89;60.28;;
70245;Laerm;57637;49.272;8.590;2023-07-20T07:48:27;41.44;32.38;55.08;;
70245;Laerm;57637;49.272;8.590;2023-07-20T07:50:53;49.89;33.28;70.72;;
70245;Laerm;57637;49.272;8.590;2023-07-20T07:53:19;50.09;33.06;63.68;;
70245;Laerm;57637;49.272;8.590;2023-07-20T07:55:47;45.93;33.54;59.41;;
70245;Laerm;57637;49.272;8.590;2023-07-20T07:58:12;39.73;32.81;61.88;;
70245;Laerm;57637;49.272;8.590;2023-07-20T08:00:38;47.43;33.73;67.89;;
70245;Laerm;57637;49.272;8.590;2023-07-20T08:03:06;49.43;35.26;67.72;;
70245;Laerm;57637;49.272;8.590;2023-07-20T08:05:33;46.98;32.87;61.64;;
70245;Laerm;57637;49.272;8.590;2023-07-20T08:08:00;51.33;35.42;72.85;;
70245;Laerm;57637;49.272;8.590;2023-07-20T08:10:25;48.82;34.45;63.84;;
70245;Laerm;57637;49.272;8.590;2023-07-20T08:12:51;52.70;36.64;70.49;;
70245;Laerm;57637;49.272;8.590;2023-07-20T08:15:16;48.48;33.84;62.69;;
70245;Laerm;57637;49.272;8.590;2023-07-20T08:17:42;47.00;33.89;68.25;;
70245;Laerm;57637;49.272;8.590;2023-07-20T08:20:09;49.17;35.26;68.87;;
70245;Laerm;57637;49.272;8.590;2023-07-20T08:22:37;42.26;34.56;62.80;;
70245;Laerm;57637;49.272;8.590;2023-07-20T08:25:07;44.78;33.66;70.40;;
70245;Laerm;57637;49.272;8.590;2023-07-20T08:27:33;41.03;33.42;54.52;;
70245;Laerm;57637;49.272;8.590;2023-07-20T08:29:59;42.04;31.72;60.35;;
70245;Laerm;57637;49.272;8.590;2023-07-20T08:32:25;46.52;34.70;62.27;;
70245;Laerm;57637;49.272;8.590;2023-07-20T08:34:50;44.89;33.51;59.53;;
70245;Laerm;57637;49.272;8.590;2023-07-20T08:37:16;42.23;31.74;58.78;;
70245;Laerm;57637;49.272;8.590;2023-07-20T08:39:41;48.91;33.01;66.29;;
70245;Laerm;57637;49.272;8.590;2023-07-20T08:42:07;55.91;37.46;74.71;;
70245;Laerm;57637;49.272;8.590;2023-07-20T08:44:33;53.98;35.86;71.36;;
70245;Laerm;57637;49.272;8.590;2023-07-20T08:47:00;53.35;38.54;65.97;;
70245;Laerm;57637;49.272;8.590;2023-07-20T08:49:27;52.66;40.00;58.14;;
70245;Laerm;57637;49.272;8.590;2023-07-20T08:51:53;52.31;42.14;62.06;;
70245;Laerm;57637;49.272;8.590;2023-07-20T08:54:18;51.89;44.32;58.35;;
70245;Laerm;57637;49.272;8.590;2023-07-20T08:56:45;50.16;36.97;59.71;;
70245;Laerm;57637;49.272;8.590;2023-07-20T08:59:12;44.38;35.43;54.80;;
70245;Laerm;57637;49.272;8.590;2023-07-20T09:01:39;44.36;34.82;65.06;;
70245;Laerm;57637;49.272;8.590;2023-07-20T09:04:06;40.89;34.86;56.58;;
70245;Laerm;57637;49.272;8.590;2023-07-20T09:06:31;50.88;34.75;65.89;;
70245;Laerm;57637;49.272;8.590;2023-07-20T09:08:57;52.70;35.48;75.81;;
70245;Laerm;57637;49.272;8.590;2023-07-20T09:11:22;49.79;35.01;72.58;;
70245;Laerm;57637;49.272;8.590;2023-07-20T09:14:01;51.37;36.99;61.97;;
70245;Laerm;57637;49.272;8.590;2023-07-20T09:16:27;47.72;34.54;56.15;;
70245;Laerm;57637;49.272;8.590;2023-07-20T09:18:53;46.49;35.74;56.55;;
70245;Laerm;57637;49.272;8.590;2023-07-20T09:21:19;49.74;35.68;58.45;;
70245;Laerm;57637;49.272;8.590;2023-07-20T09:23:44;50.30;35.17;62.92;;
70245;Laerm;57637;49.272;8.590;2023-07-20T09:26:13;52.79;37.86;67.55;;
70245;Laerm;57637;49.272;8.590;2023-07-20T09:28:43;49.01;34.25;66.66;;
70245;Laerm;57637;49.272;8.590;2023-07-20T09:31:20;50.28;35.16;72.30;;
70245;Laerm;57637;49.272;8.590;2023-07-20T09:33:47;54.44;38.52;71.07;;
70245;Laerm;57637;49.272;8.590;2023-07-20T09:36:13;50.44;35.70;70.79;;
70245;Laerm;57637;49.272;8.590;2023-07-20T09:38:41;52.65;37.30;68.05;;
70245;Laerm;57637;49.272;8.590;2023-07-20T09:41:17;49.26;34.44;63.02;;
70245;Laerm;57637;49.272;8.590;2023-07-20T09:43:43;48.53;33.27;76.26;;
70245;Laerm;57637;49.272;8.590;2023-07-20T09:46:10;54.63;33.25;86.93;;
70245;Laerm;57637;49.272;8.590;2023-07-20T09:48:35;46.06;34.82;71.55;;
70245;Laerm;57637;49.272;8.590;2023-07-20T09:51:01;51.18;37.74;68.32;;
70245;Laerm;57637;49.272;8.590;2023-07-20T09:53:27;53.61;38.70;68.36;;
70245;Laerm;57637;49.272;8.590;2023-07-20T09:55:54;47.85;36.52;57.63;;
70245;Laerm;57637;49.272;8.590;2023-07-20T09:58:19;49.88;35.32;57.48;;
70245;Laerm;57637;49.272;8.590;2023-07-20T10:00:46;48.63;34.50;58.96;;
70245;Laerm;57637;49.272;8.590;2023-07-20T10:03:21;47.29;34.14;65.74;;
70245;Laerm;57637;49.272;8.590;2023-07-20T10:05:54;53.80;34.29;69.54;;
70245;Laerm;57637;49.272;8.590;2023-07-20T10:08:24;53.74;36.20;70.35;;
70245;Laerm;57637;49.272;8.590;2023-07-20T10:10:49;50.97;36.89;59.02;;
70245;Laerm;57637;49.272;8.590;2023-07-20T10:13:25;49.16;36.33;61.58;;
70245;Laerm;57637;49.272;8.590;2023-07-20T10:15:54;47.94;35.25;76.67;;
70245;Laerm;57637;49.272;8.590;2023-07-20T10:18:29;41.25;35.85;54.80;;
70245;Laerm;57637;49.272;8.590;2023-07-20T10:20:55;43.02;35.38;59.13;;
70245;Laerm;57637;49.272;8.590;2023-07-20T10:23:22;45.16;36.05;55.63;;
70245;Laerm;57637;49.272;8.590;2023-07-20T10:25:50;51.58;37.50;59.00;;
70245;Laerm;57637;49.272;8.590;2023-07-20T10:28:16;51.79;36.10;57.78;;
70245;Laerm;57637;49.272;8.590;2023-07-20T10:30:42;53.97;36.52;67.13;;
70245;Laerm;57637;49.272;8.590;2023-07-20T10:33:08;51.82;38.05;61.97;;
70245;Laerm;57637;49.272;8.590;2023-07-20T10:35:54;52.76;36.42;66.47;;
70245;Laerm;57637;49.272;8.590;2023-07-20T10:38:20;54.26;36.04;75.38;;
70245;Laerm;57637;49.272;8.590;2023-07-20T10:41:03;60.55;36.57;78.19;;
70245;Laerm;57637;49.272;8.590;2023-07-20T10:43:28;60.01;36.41;77.48;;
70245;Laerm;57637;49.272;8.590;2023-07-20T10:45:54;56.14;36.28;74.41;;
70245;Laerm;57637;49.272;8.590;2023-07-20T10:48:21;50.30;35.32;73.89;;
70245;Laerm;57637;49.272;8.590;2023-07-20T10:51:13;40.06;34.76;57.28;;
70245;Laerm;57637;49.272;8.590;2023-07-20T10:53:39;42.19;35.63;53.40;;
70245;Laerm;57637;49.272;8.590;2023-07-20T10:56:06;43.65;33.01;67.25;;
70245;Laerm;57637;49.272;8.590;2023-07-20T10:58:33;40.62;33.90;57.38;;
70245;Laerm;57637;49.272;8.590;2023-07-20T11:01:03;50.94;34.07;71.05;;
70245;Laerm;57637;49.272;8.590;2023-07-20T11:03:36;52.89;33.34;76.20;;
70245;Laerm;57637;49.272;8.590;2023-07-20T11:09:04;46.31;33.37;64.33;;
70245;Laerm;57637;49.272;8.590;2023-07-20T11:11:31;49.12;33.28;60.43;;
70245;Laerm;57637;49.272;8.590;2023-07-20T11:14:08;50.54;34.26;68.31;;
70245;Laerm;57637;49.272;8.590;2023-07-20T11:16:39;54.56;33.90;74.63;;
70245;Laerm;57637;49.272;8.590;2023-07-20T11:19:06;51.37;32.99;67.88;;
70245;Laerm;57637;49.272;8.590;2023-07-20T11:21:38;47.20;32.39;74.05;;
70245;Laerm;57637;49.272;8.590;2023-07-20T11:24:06;44.97;33.95;63.96;;
70245;Laerm;57637;49.272;8.590;2023-07-20T11:26:48;39.31;33.24;60.32;;
70245;Laerm;57637;49.272;8.590;2023-07-20T11:29:16;40.13;33.18;53.09;;
70245;Laerm;57637;49.272;8.590;2023-07-20T11:31:43;41.43;33.94;59.63;;
70245;Laerm;57637;49.272;8.590;2023-07-20T11:34:11;46.04;34.08;64.91;;
70245;Laerm;57637;49.272;8.590;2023-07-20T11:36:40;47.93;33.55;57.20;;
70245;Laerm;57637;49.272;8.590;2023-07-20T11:39:07;50.20;36.83;66.36;;
70245;Laerm;57637;49.272;8.590;2023-07-20T11:41:34;48.14;42.62;57.41;;
70245;Laerm;57637;49.272;8.590;2023-07-20T11:43:59;43.41;34.91;57.50;;
70245;Laerm;57637;49.272;8.590;2023-07-20T11:46:25;51.78;34.69;58.53;;
70245;Laerm;57637;49.272;8.590;2023-07-20T11:48:56;52.40;45.95;57.63;;
70245;Laerm;57637;49.272;8.590;2023-07-20T11:51:23;51.81;46.41;56.81;;
70245;Laerm;57637;49.272;8.590;2023-07-20T11:53:49;53.89;38.22;67.12;;
70245;Laerm;57637;49.272;8.590;2023-07-20T11:56:14;53.07;35.53;75.82;;
70245;Laerm;57637;49.272;8.590;2023-07-20T11:58:44;46.76;35.48;61.43;;
70245;Laerm;57637;49.272;8.590;2023-07-20T12:01:11;40.25;34.07;53.51;;
70245;Laerm;57637;49.272;8.590;2023-07-20T12:03:36;50.56;36.41;67.69;;
70245;Laerm;57637;49.272;8.590;2023-07-20T12:06:09;52.00;40.87;69.08;;
70245;Laerm;57637;49.272;8.590;2023-07-20T12:08:34;50.77;40.91;68.73;;
70245;Laerm;57637;49.272;8.590;2023-07-20T12:11:00;49.78;42.74;69.07;;
70245;Laerm;57637;49.272;8.590;2023-07-20T12:13:47;50.32;44.88;63.94;;
70245;Laerm;57637;49.272;8.590;2023-07-20T12:16:13;52.07;48.06;65.99;;
70245;Laerm;57637;49.272;8.590;2023-07-20T12:18:40;51.68;43.89;61.39;;
70245;Laerm;57637;49.272;8.590;2023-07-20T12:21:06;51.03;38.05;66.81;;
70245;Laerm;57637;49.272;8.590;2023-07-20T12:23:37;48.29;37.40;66.35;;
70245;Laerm;57637;49.272;8.590;2023-07-20T12:26:06;48.52;34.30;66.52;;
70245;Laerm;57637;49.272;8.590;2023-07-20T12:28:31;53.61;47.47;70.51;;
70245;Laerm;57637;49.272;8.590;2023-07-20T12:30:57;53.56;35.87;66.43;;
70245;Laerm;57637;49.272;8.590;2023-07-20T12:33:22;48.87;33.46;57.09;;
70245;Laerm;57637;49.272;8.590;2023-07-20T12:35:49;39.23;32.26;57.60;;
70245;Laerm;57637;49.272;8.590;2023-07-20T12:38:15;38.46;33.22;58.18;;
70245;Laerm;57637;49.272;8.590;2023-07-20T12:40:41;38.60;32.99;57.58;;
70245;Laerm;57637;49.272;8.590;2023-07-20T12:43:06;42.36;34.37;63.11;;
70245;Laerm;57637;49.272;8.590;2023-07-20T12:45:32;38.73;32.97;54.86;;
70245;Laerm;57637;49.272;8.590;2023-07-20T12:47:58;38.76;32.23;53.50;;
70245;Laerm;57637;49.272;8.590;2023-07-20T12:50:24;38.95;33.37;51.84;;
70245;Laerm;57637;49.272;8.590;2023-07-20T12:52:49;42.77;35.68;54.54;;
70245;Laerm;57637;49.272;8.590;2023-07-20T12:55:14;41.68;34.06;56.47;;
70245;Laerm;57637;49.272;8.590;2023-07-20T12:57:40;41.17;33.52;55.74;;
70245;Laerm;57637;49.272;8.590;2023-07-20T13:00:08;46.27;33.89;67.39;;
70245;Laerm;57637;49.272;8.590;2023-07-20T13:02:34;48.24;33.12;76.37;;
70245;Laerm;57637;49.272;8.590;2023-07-20T13:05:00;41.63;32.86;64.09;;
70245;Laerm;57637;49.272;8.590;2023-07-20T13:07:33;45.32;33.17;65.46;;
70245;Laerm;57637;49.272;8.590;2023-07-20T13:09:59;50.78;32.78;74.79;;
70245;Laerm;57637;49.272;8.590;2023-07-20T13:12:29;42.20;33.62;61.05;;
70245;Laerm;57637;49.272;8.590;2023-07-20T13:14:55;40.13;33.20;60.91;;
70245;Laerm;57637;49.272;8.590;2023-07-20T13:17:22;41.12;33.36;62.49;;
70245;Laerm;57637;49.272;8.590;2023-07-20T13:19:47;39.00;32.71;56.09;;
70245;Laerm;57637;49.272;8.590;2023-07-20T13:22:13;41.39;32.23;68.50;;
70245;Laerm;57637;49.272;8.590;2023-07-20T13:24:40;48.88;32.52;66.48;;
70245;Laerm;57637;49.272;8.590;2023-07-20T13:27:06;49.17;37.72;65.27;;
70245;Laerm;57637;49.272;8.590;2023-07-20T13:29:32;47.41;34.40;64.48;;
70245;Laerm;57637;49.272;8.590;2023-07-20T13:31:58;40.26;34.06;53.07;;
70245;Laerm;57637;49.272;8.590;2023-07-20T13:34:24;48.53;34.76;68.88;;
70245;Laerm;57637;49.272;8.590;2023-07-20T13:36:50;44.51;35.24;59.75;;
70245;Laerm;57637;49.272;8.590;2023-07-20T13:39:15;46.10;34.32;65.36;;
70245;Laerm;57637;49.272;8.590;2023-07-20T13:41:40;42.59;32.89;62.98;;
70245;Laerm;57637;49.272;8.590;2023-07-20T13:44:06;43.98;33.92;61.84;;
70245;Laerm;57637;49.272;8.590;2023-07-20T13:46:31;42.49;33.99;63.27;;
70245;Laerm;57637;49.272;8.590;2023-07-20T13:48:56;46.61;33.12;73.47;;
70245;Laerm;57637;49.272;8.590;2023-07-20T13:51:22;44.01;34.83;62.66;;